createdAt,value
2023-09-30T00:00:29.128Z,2.50
2023-09-30T00:01:29.112Z,2.40
2023-09-30T00:02:29.174Z,2.40
2023-09-30T00:03:29.176Z,2.20
2023-09-30T00:04:29.275Z,2.00
2023-09-30T00:05:29.075Z,2.20
2023-09-30T00:06:29.048Z,3.00
2023-09-30T00:07:29.015Z,2.20
2023-09-30T00:08:29.002Z,2.10
2023-09-30T00:09:29.059Z,2.30
2023-09-30T00:10:28.999Z,2.30
2023-09-30T00:11:28.965Z,2.30
2023-09-30T00:12:29.013Z,2.30
2023-09-30T00:13:29.009Z,2.80
2023-09-30T00:14:28.919Z,2.50
2023-09-30T00:15:28.932Z,1.90
2023-09-30T00:16:29.084Z,2.50
2023-09-30T00:17:28.924Z,2.30
2023-09-30T00:18:28.944Z,2.10
2023-09-30T00:19:28.873Z,2.10
2023-09-30T00:20:28.856Z,2.50
2023-09-30T00:21:28.925Z,2.20
2023-09-30T00:22:28.844Z,2.20
2023-09-30T00:23:28.831Z,2.20
2023-09-30T00:24:28.901Z,2.20
2023-09-30T00:25:28.829Z,2.30
2023-09-30T00:26:28.833Z,2.40
2023-09-30T00:27:28.853Z,2.50
2023-09-30T00:28:28.773Z,2.50
2023-09-30T00:29:28.785Z,2.00
2023-09-30T00:30:28.949Z,2.30
2023-09-30T00:31:28.852Z,1.90
2023-09-30T00:32:28.762Z,2.40
2023-09-30T00:33:28.747Z,2.50
2023-09-30T00:34:28.717Z,2.40
2023-09-30T00:35:28.729Z,2.40
2023-09-30T00:36:28.773Z,2.50
2023-09-30T00:37:28.753Z,2.40
2023-09-30T00:38:28.668Z,2.20
2023-09-30T00:39:28.692Z,2.50
2023-09-30T00:40:28.661Z,2.50
2023-09-30T00:41:28.667Z,2.10
2023-09-30T00:42:28.662Z,2.30
2023-09-30T00:43:28.641Z,2.30
2023-09-30T00:44:28.676Z,2.10
2023-09-30T00:45:28.681Z,2.30
2023-09-30T00:46:28.813Z,2.10
2023-09-30T00:47:28.636Z,2.20
2023-09-30T00:48:28.616Z,2.30
2023-09-30T00:49:28.555Z,2.10
2023-09-30T00:50:28.541Z,2.40
2023-09-30T00:51:28.623Z,2.30
2023-09-30T00:52:28.533Z,2.10
2023-09-30T00:53:28.528Z,2.50
2023-09-30T00:54:28.558Z,2.10
2023-09-30T00:55:28.483Z,2.30
2023-09-30T00:56:28.508Z,2.40
2023-09-30T00:57:28.502Z,2.30
2023-09-30T00:58:28.479Z,2.20
2023-09-30T00:59:28.441Z,2.00
2023-09-30T01:00:28.489Z,2.30
2023-09-30T01:01:28.437Z,2.20
2023-09-30T01:02:28.557Z,2.50
2023-09-30T01:03:28.544Z,2.50
2023-09-30T01:04:28.522Z,2.00
2023-09-30T01:05:28.392Z,2.20
2023-09-30T01:06:28.483Z,2.20
2023-09-30T01:07:28.390Z,2.30
2023-09-30T01:08:28.365Z,2.20
2023-09-30T01:09:28.452Z,1.90
2023-09-30T01:10:28.335Z,2.00
2023-09-30T01:11:28.312Z,2.00
2023-09-30T01:12:28.447Z,2.10
2023-09-30T01:13:28.306Z,2.20
2023-09-30T01:14:28.351Z,2.10
2023-09-30T01:15:28.330Z,2.20
2023-09-30T01:16:28.317Z,2.20
2023-09-30T01:17:28.324Z,2.50
2023-09-30T01:18:28.353Z,2.10
2023-09-30T01:19:28.332Z,2.40
2023-09-30T01:20:28.235Z,2.10
2023-09-30T01:21:28.252Z,2.00
2023-09-30T01:22:28.205Z,2.30
2023-09-30T01:23:28.248Z,2.10
2023-09-30T01:24:28.329Z,2.30
2023-09-30T01:25:28.168Z,2.50
2023-09-30T01:26:28.159Z,2.20
2023-09-30T01:27:28.208Z,2.00
2023-09-30T01:28:28.165Z,2.10
2023-09-30T01:29:28.178Z,2.20
2023-09-30T01:30:28.162Z,2.30
2023-09-30T01:31:28.176Z,2.10
2023-09-30T01:32:28.137Z,2.30
2023-09-30T01:33:28.119Z,2.00
2023-09-30T01:34:28.065Z,2.40
2023-09-30T01:35:28.069Z,2.00
2023-09-30T01:36:28.121Z,2.10
2023-09-30T01:37:28.039Z,2.00
2023-09-30T01:38:28.105Z,2.10
2023-09-30T01:39:28.073Z,2.20
2023-09-30T01:40:28.025Z,2.20
2023-09-30T01:41:28.001Z,1.90
2023-09-30T01:42:28.050Z,2.40
2023-09-30T01:43:27.986Z,2.40
2023-09-30T01:44:28.051Z,2.20
2023-09-30T01:45:27.987Z,2.20
2023-09-30T01:46:27.993Z,2.30
2023-09-30T01:47:27.986Z,2.10
2023-09-30T01:48:28.077Z,2.20
2023-09-30T01:49:27.914Z,2.50
2023-09-30T01:50:27.905Z,2.10
2023-09-30T01:51:27.957Z,2.10
2023-09-30T01:52:27.878Z,2.30
2023-09-30T01:53:27.871Z,2.40
2023-09-30T01:54:27.978Z,2.10
2023-09-30T01:55:27.853Z,2.10
2023-09-30T01:56:27.832Z,2.00
2023-09-30T01:57:27.852Z,2.00
2023-09-30T01:58:27.828Z,2.30
2023-09-30T01:59:27.858Z,2.30
2023-09-30T02:00:27.865Z,2.00
2023-09-30T02:01:27.849Z,2.20
2023-09-30T02:02:27.882Z,2.20
2023-09-30T02:03:27.930Z,2.30
2023-09-30T02:04:27.789Z,2.60
2023-09-30T02:05:27.769Z,2.20
2023-09-30T02:06:27.880Z,2.40
2023-09-30T02:07:27.771Z,2.30
2023-09-30T02:08:27.715Z,2.50
2023-09-30T02:09:27.741Z,2.30
2023-09-30T02:10:27.702Z,2.30
2023-09-30T02:11:27.754Z,2.60
2023-09-30T02:12:27.718Z,2.50
2023-09-30T02:13:27.670Z,2.50
2023-09-30T02:14:27.667Z,2.60
2023-09-30T02:15:27.708Z,2.60
2023-09-30T02:16:27.725Z,2.40
2023-09-30T02:17:27.677Z,2.50
2023-09-30T02:18:27.610Z,2.40
2023-09-30T02:19:27.591Z,2.30
2023-09-30T02:20:27.609Z,2.40
2023-09-30T02:21:27.670Z,2.60
2023-09-30T02:22:27.561Z,2.50
2023-09-30T02:23:27.556Z,2.40
2023-09-30T02:24:27.579Z,2.60
2023-09-30T02:25:27.542Z,2.40
2023-09-30T02:26:27.519Z,2.20
2023-09-30T02:27:27.597Z,2.50
2023-09-30T02:28:27.490Z,2.60
2023-09-30T02:29:27.482Z,2.40
2023-09-30T02:30:27.522Z,2.30
2023-09-30T02:31:27.586Z,2.60
2023-09-30T02:32:27.470Z,2.10
2023-09-30T02:33:27.507Z,2.80
2023-09-30T02:34:27.430Z,2.40
2023-09-30T02:35:27.439Z,2.50
2023-09-30T02:36:27.457Z,2.60
2023-09-30T02:37:27.409Z,2.70
2023-09-30T02:38:27.393Z,2.40
2023-09-30T02:39:27.460Z,2.50
2023-09-30T02:40:27.376Z,2.50
2023-09-30T02:41:27.361Z,2.70
2023-09-30T02:42:27.384Z,2.70
2023-09-30T02:43:27.344Z,2.50
2023-09-30T02:44:27.326Z,2.40
2023-09-30T02:45:27.477Z,2.80
2023-09-30T02:46:27.406Z,2.80
2023-09-30T02:47:30.628Z,2.70
2023-09-30T02:48:27.391Z,2.40
2023-09-30T02:49:27.270Z,2.50
2023-09-30T02:50:27.274Z,2.40
2023-09-30T02:51:27.326Z,2.60
2023-09-30T02:52:27.280Z,2.60
2023-09-30T02:53:27.233Z,2.50
2023-09-30T02:54:27.264Z,2.50
2023-09-30T02:55:27.229Z,2.60
2023-09-30T02:56:27.206Z,2.30
2023-09-30T02:57:27.215Z,2.30
2023-09-30T02:58:27.180Z,2.60
2023-09-30T02:59:27.170Z,2.80
2023-09-30T03:00:27.687Z,3.00
2023-09-30T03:01:27.368Z,2.60
2023-09-30T03:02:27.138Z,2.40
2023-09-30T03:03:27.184Z,2.60
2023-09-30T03:04:27.166Z,2.40
2023-09-30T03:05:27.118Z,2.70
2023-09-30T03:06:27.155Z,2.50
2023-09-30T03:07:27.087Z,3.20
2023-09-30T03:08:27.082Z,2.70
2023-09-30T03:09:27.093Z,2.20
2023-09-30T03:10:27.191Z,2.20
2023-09-30T03:11:27.046Z,2.40
2023-09-30T03:12:27.051Z,2.40
2023-09-30T03:13:27.038Z,2.60
2023-09-30T03:14:27.012Z,2.10
2023-09-30T03:15:27.040Z,2.70
2023-09-30T03:16:27.024Z,2.40
2023-09-30T03:17:27.059Z,2.30
2023-09-30T03:18:27.055Z,2.40
2023-09-30T03:19:27.029Z,2.50
2023-09-30T03:20:26.976Z,2.30
2023-09-30T03:21:26.970Z,2.60
2023-09-30T03:22:26.944Z,2.70
2023-09-30T03:23:26.946Z,2.70
2023-09-30T03:24:26.960Z,2.50
2023-09-30T03:25:26.882Z,2.50
2023-09-30T03:26:26.872Z,2.70
2023-09-30T03:27:26.908Z,2.20
2023-09-30T03:28:26.943Z,2.60
2023-09-30T03:29:26.869Z,2.80
2023-09-30T03:30:26.882Z,2.70
2023-09-30T03:31:26.905Z,2.80
2023-09-30T03:32:26.859Z,2.70
2023-09-30T03:33:26.853Z,2.70
2023-09-30T03:34:26.793Z,2.50
2023-09-30T03:35:26.818Z,2.50
2023-09-30T03:36:26.875Z,2.50
2023-09-30T03:37:26.780Z,2.40
2023-09-30T03:38:26.758Z,2.60
2023-09-30T03:39:26.782Z,2.50
2023-09-30T03:40:26.741Z,3.00
2023-09-30T03:41:26.726Z,2.60
2023-09-30T03:42:26.770Z,2.50
2023-09-30T03:43:26.700Z,2.50
2023-09-30T03:44:26.677Z,2.50
2023-09-30T03:45:26.745Z,2.30
2023-09-30T03:46:26.687Z,2.60
2023-09-30T03:47:26.680Z,2.30
2023-09-30T03:48:26.698Z,2.40
2023-09-30T03:49:26.629Z,2.40
2023-09-30T03:50:26.625Z,2.60
2023-09-30T03:51:26.694Z,2.80
2023-09-30T03:52:26.634Z,2.70
2023-09-30T03:53:26.589Z,3.10
2023-09-30T03:54:26.633Z,2.60
2023-09-30T03:55:26.557Z,2.70
2023-09-30T03:56:26.567Z,2.70
2023-09-30T03:57:26.558Z,2.90
2023-09-30T03:58:26.593Z,2.70
2023-09-30T03:59:26.545Z,2.50
2023-09-30T04:00:26.577Z,2.40
2023-09-30T04:01:26.513Z,2.60
2023-09-30T04:02:26.492Z,2.30
2023-09-30T04:03:26.637Z,2.10
2023-09-30T04:04:26.595Z,2.60
2023-09-30T04:05:26.483Z,2.30
2023-09-30T04:06:26.492Z,2.50
2023-09-30T04:07:26.462Z,2.80
2023-09-30T04:08:26.441Z,2.60
2023-09-30T04:09:26.429Z,2.30
2023-09-30T04:10:26.457Z,2.60
2023-09-30T04:11:26.493Z,2.70
2023-09-30T04:12:26.425Z,2.70
2023-09-30T04:13:26.374Z,2.40
2023-09-30T04:14:26.365Z,2.30
2023-09-30T04:15:26.425Z,2.20
2023-09-30T04:16:26.392Z,2.30
2023-09-30T04:17:26.379Z,2.60
2023-09-30T04:18:26.384Z,2.30
2023-09-30T04:19:26.344Z,2.30
2023-09-30T04:20:26.301Z,2.30
2023-09-30T04:21:26.319Z,2.70
2023-09-30T04:22:26.282Z,2.90
2023-09-30T04:23:26.278Z,2.40
2023-09-30T04:24:26.320Z,2.50
2023-09-30T04:25:26.260Z,2.30
2023-09-30T04:26:26.294Z,2.10
2023-09-30T04:27:26.300Z,2.50
2023-09-30T04:28:26.222Z,2.30
2023-09-30T04:29:26.260Z,2.40
2023-09-30T04:30:26.224Z,2.00
2023-09-30T04:31:26.278Z,2.20
2023-09-30T04:32:26.439Z,2.10
2023-09-30T04:33:26.258Z,2.30
2023-09-30T04:34:26.161Z,2.40
2023-09-30T04:35:26.158Z,2.30
2023-09-30T04:36:26.126Z,2.50
2023-09-30T04:37:26.120Z,2.40
2023-09-30T04:38:26.191Z,2.20
2023-09-30T04:39:26.166Z,2.40
2023-09-30T04:40:26.103Z,2.30
2023-09-30T04:41:26.154Z,2.10
2023-09-30T04:42:26.090Z,2.30
2023-09-30T04:43:26.054Z,2.30
2023-09-30T04:44:26.052Z,2.00
2023-09-30T04:45:26.145Z,2.30
2023-09-30T04:46:26.156Z,2.10
2023-09-30T04:47:26.051Z,2.50
2023-09-30T04:48:26.049Z,2.40
2023-09-30T04:49:26.036Z,2.20
2023-09-30T04:50:25.989Z,2.40
2023-09-30T04:51:25.976Z,2.40
2023-09-30T04:52:25.951Z,2.60
2023-09-30T04:53:25.987Z,2.20
2023-09-30T04:54:25.984Z,2.10
2023-09-30T04:55:25.921Z,2.20
2023-09-30T04:56:25.932Z,2.00
2023-09-30T04:57:25.924Z,2.10
2023-09-30T04:58:26.420Z,2.40
2023-09-30T04:59:25.892Z,2.00
2023-09-30T05:00:25.943Z,2.20
2023-09-30T05:01:25.895Z,2.30
2023-09-30T05:02:25.962Z,2.10
2023-09-30T05:03:26.292Z,2.20
2023-09-30T05:04:25.928Z,2.10
2023-09-30T05:05:25.824Z,2.10
2023-09-30T05:06:25.839Z,2.30
2023-09-30T05:07:25.805Z,2.20
2023-09-30T05:08:25.873Z,2.10
2023-09-30T05:09:25.834Z,2.00
2023-09-30T05:10:25.801Z,2.20
2023-09-30T05:11:25.772Z,2.20
2023-09-30T05:12:25.815Z,2.30
2023-09-30T05:13:25.732Z,2.50
2023-09-30T05:14:25.741Z,2.40
2023-09-30T05:15:25.737Z,2.50
2023-09-30T05:16:25.868Z,2.60
2023-09-30T05:17:25.825Z,2.40
2023-09-30T05:18:25.875Z,2.50
2023-09-30T05:19:25.662Z,2.60
2023-09-30T05:20:25.758Z,2.30
2023-09-30T05:21:25.681Z,2.70
2023-09-30T05:22:25.662Z,2.40
2023-09-30T05:23:25.643Z,2.40
2023-09-30T05:24:25.641Z,2.80
2023-09-30T05:25:25.653Z,2.40
2023-09-30T05:26:25.602Z,2.50
2023-09-30T05:27:25.642Z,2.20
2023-09-30T05:28:25.596Z,2.10
2023-09-30T05:29:25.567Z,2.20
2023-09-30T05:30:25.687Z,2.70
2023-09-30T05:31:26.746Z,2.70
2023-09-30T05:32:25.587Z,2.40
2023-09-30T05:33:25.618Z,2.40
2023-09-30T05:34:25.624Z,2.60
2023-09-30T05:35:25.513Z,2.40
2023-09-30T05:36:25.651Z,2.50
2023-09-30T05:37:25.476Z,2.40
2023-09-30T05:38:25.521Z,2.60
2023-09-30T05:39:25.530Z,2.30
2023-09-30T05:40:25.444Z,2.80
2023-09-30T05:41:25.429Z,2.00
2023-09-30T05:42:25.518Z,2.90
2023-09-30T05:43:25.436Z,2.60
2023-09-30T05:44:25.464Z,2.70
2023-09-30T05:45:25.439Z,2.10
2023-09-30T05:46:25.432Z,2.70
2023-09-30T05:47:25.368Z,2.50
2023-09-30T05:48:25.519Z,2.50
2023-09-30T05:49:25.366Z,2.60
2023-09-30T05:50:25.514Z,2.40
2023-09-30T05:51:25.356Z,2.50
2023-09-30T05:52:25.368Z,2.40
2023-09-30T05:53:25.358Z,2.20
2023-09-30T05:54:25.343Z,2.30
2023-09-30T05:55:25.287Z,2.10
2023-09-30T05:56:25.281Z,2.50
2023-09-30T05:57:25.307Z,2.50
2023-09-30T05:58:25.286Z,2.40
2023-09-30T05:59:25.268Z,2.30
2023-09-30T06:00:25.282Z,2.90
2023-09-30T06:01:25.243Z,2.30
2023-09-30T06:02:25.307Z,2.40
2023-09-30T06:03:25.290Z,2.50
2023-09-30T06:04:25.290Z,2.30
2023-09-30T06:05:25.184Z,2.30
2023-09-30T06:06:25.440Z,2.70
2023-09-30T06:07:25.159Z,2.70
2023-09-30T06:08:25.150Z,2.20
2023-09-30T06:09:25.200Z,2.30
2023-09-30T06:10:25.116Z,2.60
2023-09-30T06:11:25.105Z,2.70
2023-09-30T06:12:25.127Z,2.40
2023-09-30T06:13:25.173Z,2.50
2023-09-30T06:14:25.094Z,2.80
2023-09-30T06:15:25.110Z,2.80
2023-09-30T06:16:25.127Z,2.50
2023-09-30T06:17:25.104Z,2.90
2023-09-30T06:18:25.093Z,2.80
2023-09-30T06:19:25.016Z,2.70
2023-09-30T06:20:25.006Z,3.00
2023-09-30T06:21:25.170Z,2.90
2023-09-30T06:22:25.606Z,2.80
2023-09-30T06:23:24.992Z,2.90
2023-09-30T06:24:25.020Z,3.30
2023-09-30T06:25:25.019Z,2.50
2023-09-30T06:26:24.960Z,2.90
2023-09-30T06:27:24.983Z,2.90
2023-09-30T06:28:24.933Z,3.20
2023-09-30T06:29:24.932Z,3.20
2023-09-30T06:30:25.108Z,2.80
2023-09-30T06:31:24.987Z,2.90
2023-09-30T06:32:25.003Z,3.00
2023-09-30T06:33:24.896Z,3.00
2023-09-30T06:34:24.866Z,2.70
2023-09-30T06:35:26.498Z,2.70
2023-09-30T06:36:24.880Z,2.90
2023-09-30T06:37:24.827Z,3.00
2023-09-30T06:38:24.833Z,2.50
2023-09-30T06:39:24.849Z,2.80
2023-09-30T06:40:24.855Z,3.00
2023-09-30T06:41:24.816Z,3.20
2023-09-30T06:42:24.874Z,2.90
2023-09-30T06:43:24.794Z,2.80
2023-09-30T06:44:24.761Z,2.70
2023-09-30T06:45:24.930Z,2.60
2023-09-30T06:46:24.764Z,2.80
2023-09-30T06:47:24.816Z,2.80
2023-09-30T06:48:24.854Z,2.70
2023-09-30T06:49:24.693Z,2.80
2023-09-30T06:50:24.701Z,2.60
2023-09-30T06:51:24.791Z,2.50
2023-09-30T06:52:24.670Z,2.60
2023-09-30T06:53:24.658Z,3.00
2023-09-30T06:54:24.694Z,3.00
2023-09-30T06:55:24.703Z,2.60
2023-09-30T06:56:24.620Z,2.90
2023-09-30T06:57:24.658Z,3.20
2023-09-30T06:58:24.606Z,3.20
2023-09-30T06:59:24.611Z,3.10
2023-09-30T07:00:24.606Z,2.90
2023-09-30T07:01:24.711Z,3.10
2023-09-30T07:02:24.623Z,2.70
2023-09-30T07:03:27.088Z,3.20
2023-09-30T07:04:24.737Z,3.20
2023-09-30T07:05:24.562Z,3.20
2023-09-30T07:06:24.596Z,2.90
2023-09-30T07:07:24.506Z,2.70
2023-09-30T07:08:24.567Z,3.30
2023-09-30T07:09:24.557Z,3.00
2023-09-30T07:10:24.519Z,3.60
2023-09-30T07:11:24.464Z,3.50
2023-09-30T07:12:24.485Z,3.30
2023-09-30T07:13:24.462Z,3.10
2023-09-30T07:14:24.448Z,3.20
2023-09-30T07:15:24.470Z,3.10
2023-09-30T07:16:24.520Z,3.30
2023-09-30T07:17:24.406Z,3.00
2023-09-30T07:18:24.532Z,3.00
2023-09-30T07:19:24.409Z,3.40
2023-09-30T07:20:24.404Z,2.90
2023-09-30T07:21:24.418Z,3.00
2023-09-30T07:22:35.046Z,2.80
2023-09-30T07:23:25.443Z,3.10
2023-09-30T07:24:26.502Z,3.20
2023-09-30T07:25:24.393Z,3.40
2023-09-30T07:26:24.306Z,3.00
2023-09-30T07:27:28.102Z,3.20
2023-09-30T07:28:24.312Z,3.30
2023-09-30T07:29:24.274Z,3.30
2023-09-30T07:30:24.355Z,3.00
2023-09-30T07:31:24.310Z,2.90
2023-09-30T07:32:24.255Z,2.80
2023-09-30T07:33:24.422Z,3.00
2023-09-30T07:34:24.401Z,2.80
2023-09-30T07:35:24.225Z,3.30
2023-09-30T07:36:24.259Z,2.90
2023-09-30T07:37:24.202Z,3.20
2023-09-30T07:38:24.197Z,3.10
2023-09-30T07:39:24.207Z,3.60
2023-09-30T07:40:24.170Z,3.40
2023-09-30T07:41:24.165Z,3.20
2023-09-30T07:42:24.240Z,3.20
2023-09-30T07:43:24.124Z,2.90
2023-09-30T07:44:24.141Z,2.60
2023-09-30T07:45:24.247Z,3.00
2023-09-30T07:46:24.285Z,3.20
2023-09-30T07:47:24.088Z,3.30
2023-09-30T07:48:24.085Z,3.60
2023-09-30T07:49:24.066Z,3.80
2023-09-30T07:50:24.050Z,3.40
2023-09-30T07:51:24.048Z,3.50
2023-09-30T07:52:24.058Z,3.50
2023-09-30T07:53:24.024Z,3.30
2023-09-30T07:54:30.972Z,3.80
2023-09-30T07:55:25.013Z,3.40
2023-09-30T07:56:23.984Z,3.50
2023-09-30T07:57:24.058Z,4.10
2023-09-30T07:58:24.077Z,3.80
2023-09-30T07:59:23.984Z,3.70
2023-09-30T08:00:24.022Z,3.70
2023-09-30T08:01:24.015Z,3.60
2023-09-30T08:02:23.923Z,3.60
2023-09-30T08:03:24.007Z,3.90
2023-09-30T08:04:23.990Z,3.60
2023-09-30T08:05:23.887Z,3.60
2023-09-30T08:06:23.927Z,3.60
2023-09-30T08:07:23.922Z,3.50
2023-09-30T08:08:23.887Z,3.90
2023-09-30T08:09:23.872Z,3.70
2023-09-30T08:10:23.840Z,3.50
2023-09-30T08:11:23.848Z,4.30
2023-09-30T08:12:23.869Z,3.60
2023-09-30T08:13:23.833Z,3.80
2023-09-30T08:14:23.816Z,3.60
2023-09-30T08:15:23.909Z,3.50
2023-09-30T08:16:23.886Z,3.90
2023-09-30T08:17:23.781Z,3.30
2023-09-30T08:18:23.832Z,3.60
2023-09-30T08:19:23.775Z,4.00
2023-09-30T08:20:23.741Z,3.20
2023-09-30T08:21:23.757Z,3.20
2023-09-30T08:22:23.789Z,3.50
2023-09-30T08:23:23.709Z,3.70
2023-09-30T08:24:23.767Z,3.80
2023-09-30T08:25:23.688Z,4.30
2023-09-30T08:26:23.685Z,3.40
2023-09-30T08:27:23.709Z,3.20
2023-09-30T08:28:23.705Z,3.70
2023-09-30T08:29:23.645Z,3.40
2023-09-30T08:30:23.694Z,3.60
2023-09-30T08:31:23.657Z,4.10
2023-09-30T08:32:23.612Z,4.10
2023-09-30T08:33:23.621Z,3.70
2023-09-30T08:34:23.704Z,3.60
2023-09-30T08:35:23.575Z,3.40
2023-09-30T08:36:23.617Z,3.90
2023-09-30T08:37:23.568Z,3.30
2023-09-30T08:38:23.594Z,3.80
2023-09-30T08:39:23.584Z,3.70
2023-09-30T08:40:23.583Z,3.60
2023-09-30T08:41:23.512Z,4.10
2023-09-30T08:42:23.518Z,3.20
2023-09-30T08:43:23.600Z,3.80
2023-09-30T08:44:23.513Z,4.10
2023-09-30T08:45:23.607Z,3.70
2023-09-30T08:46:23.632Z,3.70
2023-09-30T08:47:23.457Z,3.50
2023-09-30T08:48:24.432Z,4.10
2023-09-30T08:49:23.430Z,3.90
2023-09-30T08:50:23.438Z,3.80
2023-09-30T08:51:23.450Z,3.40
2023-09-30T08:52:23.653Z,3.20
2023-09-30T08:53:23.384Z,3.40
2023-09-30T08:54:23.412Z,3.20
2023-09-30T08:55:23.510Z,3.10
2023-09-30T08:56:23.392Z,3.40
2023-09-30T08:57:23.393Z,3.50
2023-09-30T08:58:23.367Z,3.50
2023-09-30T08:59:23.394Z,3.80
2023-09-30T09:00:23.457Z,3.30
2023-09-30T09:01:23.396Z,4.30
2023-09-30T09:02:23.292Z,3.90
2023-09-30T09:03:23.427Z,3.30
2023-09-30T09:04:23.340Z,4.00
2023-09-30T09:05:23.454Z,3.60
2023-09-30T09:06:23.339Z,3.30
2023-09-30T09:07:23.246Z,3.30
2023-09-30T09:08:23.275Z,3.10
2023-09-30T09:09:23.284Z,3.70
2023-09-30T09:10:23.218Z,3.00
2023-09-30T09:11:23.215Z,3.60
2023-09-30T09:12:23.233Z,3.90
2023-09-30T09:13:23.217Z,3.70
2023-09-30T09:14:23.210Z,4.30
2023-09-30T09:15:23.373Z,4.30
2023-09-30T09:16:23.199Z,4.50
2023-09-30T09:17:23.136Z,4.40
2023-09-30T09:18:23.159Z,3.70
2023-09-30T09:19:23.143Z,4.10
2023-09-30T09:20:23.172Z,3.80
2023-09-30T09:21:23.097Z,3.60
2023-09-30T09:22:23.079Z,3.70
2023-09-30T09:23:23.080Z,3.80
2023-09-30T09:24:23.086Z,4.00
2023-09-30T09:25:23.041Z,3.90
2023-09-30T09:26:23.075Z,4.00
2023-09-30T09:27:23.035Z,3.30
2023-09-30T09:28:23.021Z,3.30
2023-09-30T09:29:22.985Z,3.60
2023-09-30T09:30:23.035Z,3.50
2023-09-30T09:31:23.121Z,3.60
2023-09-30T09:32:23.015Z,3.70
2023-09-30T09:33:23.014Z,3.60
2023-09-30T09:34:22.946Z,3.70
2023-09-30T09:35:22.924Z,3.90
2023-09-30T09:36:22.982Z,3.80
2023-09-30T09:37:22.903Z,3.80
2023-09-30T09:38:22.910Z,4.10
2023-09-30T09:39:22.903Z,4.00
2023-09-30T09:40:22.894Z,4.50
2023-09-30T09:41:22.861Z,4.50
2023-09-30T09:42:22.901Z,4.90
2023-09-30T09:43:22.835Z,4.40
2023-09-30T09:44:22.853Z,4.30
2023-09-30T09:45:22.867Z,3.60
2023-09-30T09:46:22.908Z,4.10
2023-09-30T09:47:22.831Z,4.50
2023-09-30T09:48:22.830Z,4.50
2023-09-30T09:49:22.813Z,4.40
2023-09-30T09:50:22.773Z,5.00
2023-09-30T09:51:22.771Z,3.80
2023-09-30T09:52:22.905Z,4.10
2023-09-30T09:53:22.740Z,4.60
2023-09-30T09:54:22.784Z,4.20
2023-09-30T09:55:22.707Z,4.20
2023-09-30T09:56:22.703Z,3.90
2023-09-30T09:57:22.793Z,4.00
2023-09-30T09:58:22.722Z,4.40
2023-09-30T09:59:22.668Z,4.50
2023-09-30T10:00:22.828Z,4.30
2023-09-30T10:01:22.823Z,4.30
2023-09-30T10:02:22.721Z,3.90
2023-09-30T10:03:22.709Z,3.80
2023-09-30T10:04:22.625Z,4.20
2023-09-30T10:05:22.673Z,3.70
2023-09-30T10:06:22.640Z,4.00
2023-09-30T10:07:22.651Z,3.90
2023-09-30T10:08:22.591Z,4.20
2023-09-30T10:09:22.583Z,4.10
2023-09-30T10:10:22.557Z,4.20
2023-09-30T10:11:22.537Z,3.70
2023-09-30T10:12:22.600Z,3.70
2023-09-30T10:13:22.548Z,3.80
2023-09-30T10:14:22.589Z,3.70
2023-09-30T10:15:22.512Z,3.40
2023-09-30T10:16:22.524Z,3.70
2023-09-30T10:17:22.503Z,3.50
2023-09-30T10:18:22.488Z,3.20
2023-09-30T10:19:22.471Z,3.30
2023-09-30T10:20:22.465Z,3.80
2023-09-30T10:21:22.491Z,4.10
2023-09-30T10:22:22.418Z,4.50
2023-09-30T10:23:22.431Z,3.60
2023-09-30T10:24:22.420Z,3.80
2023-09-30T10:25:22.385Z,4.00
2023-09-30T10:26:24.825Z,3.60
2023-09-30T10:27:22.399Z,3.70
2023-09-30T10:28:22.369Z,3.80
2023-09-30T10:29:22.346Z,3.70
2023-09-30T10:30:22.383Z,3.50
2023-09-30T10:31:22.413Z,3.40
2023-09-30T10:32:22.375Z,3.40
2023-09-30T10:33:22.329Z,3.30
2023-09-30T10:34:22.308Z,3.70
2023-09-30T10:35:22.289Z,3.80
2023-09-30T10:36:22.322Z,3.10
2023-09-30T10:37:22.266Z,3.80
2023-09-30T10:38:22.296Z,3.70
2023-09-30T10:39:22.282Z,3.60
2023-09-30T10:40:22.252Z,3.90
2023-09-30T10:41:22.223Z,3.60
2023-09-30T10:42:22.247Z,3.40
2023-09-30T10:43:22.198Z,3.30
2023-09-30T10:44:22.234Z,3.10
2023-09-30T10:45:22.202Z,2.80
2023-09-30T10:46:22.241Z,3.30
2023-09-30T10:47:22.475Z,3.30
2023-09-30T10:48:22.190Z,3.20
2023-09-30T10:49:22.136Z,3.30
2023-09-30T10:50:22.161Z,3.10
2023-09-30T10:51:22.336Z,3.10
2023-09-30T10:52:22.147Z,2.70
2023-09-30T10:53:22.098Z,2.70
2023-09-30T10:54:22.115Z,2.90
2023-09-30T10:55:22.069Z,2.80
2023-09-30T10:56:22.068Z,2.50
2023-09-30T10:57:22.084Z,2.60
2023-09-30T10:58:22.051Z,2.70
2023-09-30T10:59:22.046Z,2.80
2023-09-30T11:00:22.143Z,2.80
2023-09-30T11:01:22.235Z,2.70
2023-09-30T11:02:22.251Z,2.30
2023-09-30T11:03:22.118Z,2.80
2023-09-30T11:04:22.286Z,2.40
2023-09-30T11:05:28.525Z,2.70
2023-09-30T11:06:23.401Z,2.40
2023-09-30T11:07:21.934Z,2.20
2023-09-30T11:08:21.952Z,2.20
2023-09-30T11:09:22.025Z,2.40
2023-09-30T11:10:21.903Z,2.40
2023-09-30T11:11:21.908Z,2.60
2023-09-30T11:12:22.111Z,2.30
2023-09-30T11:13:21.897Z,2.70
2023-09-30T11:14:21.857Z,2.80
2023-09-30T11:15:21.882Z,2.50
2023-09-30T11:16:21.895Z,2.50
2023-09-30T11:17:21.829Z,2.70
2023-09-30T11:18:21.877Z,2.60
2023-09-30T11:19:21.826Z,2.40
2023-09-30T11:20:21.853Z,2.60
2023-09-30T11:21:21.788Z,2.20
2023-09-30T11:22:21.780Z,2.10
2023-09-30T11:23:21.768Z,2.10
2023-09-30T11:24:21.767Z,2.00
2023-09-30T11:25:21.802Z,2.00
2023-09-30T11:26:21.732Z,2.10
2023-09-30T11:27:21.727Z,2.20
2023-09-30T11:28:21.716Z,2.10
2023-09-30T11:29:21.706Z,2.00
2023-09-30T11:30:21.861Z,2.30
2023-09-30T11:31:21.906Z,2.30
2023-09-30T11:32:21.673Z,2.70
2023-09-30T11:33:21.661Z,2.40
2023-09-30T11:34:21.658Z,2.70
2023-09-30T11:35:21.699Z,2.20
2023-09-30T11:36:21.651Z,2.70
2023-09-30T11:37:21.662Z,2.70
2023-09-30T11:38:21.681Z,2.00
2023-09-30T11:39:21.594Z,2.20
2023-09-30T11:40:21.636Z,2.00
2023-09-30T11:41:21.580Z,2.40
2023-09-30T11:42:21.570Z,2.40
2023-09-30T11:43:21.605Z,2.10
2023-09-30T11:44:21.551Z,2.30
2023-09-30T11:45:21.548Z,2.30
2023-09-30T11:46:21.655Z,1.90
2023-09-30T11:47:21.516Z,2.40
2023-09-30T11:48:21.522Z,2.10
2023-09-30T11:49:21.491Z,2.00
2023-09-30T11:50:21.500Z,2.20
2023-09-30T11:51:21.599Z,2.40
2023-09-30T11:52:21.478Z,2.20
2023-09-30T11:53:21.452Z,1.90
2023-09-30T11:54:21.459Z,2.00
2023-09-30T11:55:21.443Z,2.00
2023-09-30T11:56:21.434Z,1.80
2023-09-30T11:57:21.426Z,1.90
2023-09-30T11:58:21.396Z,2.00
2023-09-30T11:59:21.398Z,1.90
2023-09-30T12:00:21.400Z,1.80
2023-09-30T12:01:21.399Z,1.90
2023-09-30T12:02:21.422Z,1.70
2023-09-30T12:03:21.374Z,1.80
2023-09-30T12:04:21.453Z,1.80
2023-09-30T12:05:21.325Z,2.00
2023-09-30T12:06:21.315Z,2.00
2023-09-30T12:07:21.318Z,2.30
2023-09-30T12:08:21.311Z,1.80
2023-09-30T12:09:21.283Z,2.40
2023-09-30T12:10:21.352Z,1.90
2023-09-30T12:11:21.284Z,1.80
2023-09-30T12:12:21.272Z,1.90
2023-09-30T12:13:21.246Z,1.90
2023-09-30T12:14:21.219Z,2.30
2023-09-30T12:15:21.215Z,1.80
2023-09-30T12:16:21.387Z,2.40
2023-09-30T12:17:21.198Z,2.10
2023-09-30T12:18:21.186Z,2.30
2023-09-30T12:19:21.173Z,1.80
2023-09-30T12:20:21.222Z,1.90
2023-09-30T12:21:21.242Z,1.70
2023-09-30T12:22:21.234Z,1.80
2023-09-30T12:23:21.126Z,1.90
2023-09-30T12:24:21.146Z,1.50
2023-09-30T12:25:21.106Z,1.90
2023-09-30T12:26:21.251Z,1.50
2023-09-30T12:27:21.098Z,1.70
2023-09-30T12:28:21.132Z,1.90
2023-09-30T12:29:21.073Z,1.70
2023-09-30T12:30:21.053Z,1.70
2023-09-30T12:31:21.190Z,1.80
2023-09-30T12:32:21.240Z,1.70
2023-09-30T12:33:21.070Z,1.70
2023-09-30T12:34:21.088Z,1.80
2023-09-30T12:35:21.098Z,1.90
2023-09-30T12:36:21.009Z,2.40
2023-09-30T12:37:20.984Z,2.20
2023-09-30T12:38:20.966Z,1.90
2023-09-30T12:39:20.958Z,2.20
2023-09-30T12:40:20.959Z,1.90
2023-09-30T12:41:20.940Z,2.20
2023-09-30T12:42:21.054Z,1.90
2023-09-30T12:43:20.919Z,1.80
2023-09-30T12:44:21.012Z,1.70
2023-09-30T12:45:20.891Z,1.70
2023-09-30T12:46:20.947Z,1.80
2023-09-30T12:47:20.903Z,1.60
2023-09-30T12:48:20.931Z,1.50
2023-09-30T12:49:20.867Z,1.90
2023-09-30T12:50:20.845Z,1.80
2023-09-30T12:51:20.828Z,1.70
2023-09-30T12:52:20.846Z,1.70
2023-09-30T12:53:20.813Z,1.60
2023-09-30T12:54:20.839Z,1.50
2023-09-30T12:55:20.786Z,1.60
2023-09-30T12:56:20.796Z,1.70
2023-09-30T12:57:20.811Z,1.60
2023-09-30T12:58:20.752Z,1.60
2023-09-30T12:59:20.753Z,1.40
2023-09-30T13:00:20.833Z,1.60
2023-09-30T13:01:23.121Z,1.60
2023-09-30T13:02:20.790Z,1.70
2023-09-30T13:03:20.784Z,1.60
2023-09-30T13:04:20.693Z,1.40
2023-09-30T13:05:20.761Z,1.50
2023-09-30T13:06:20.712Z,1.60
2023-09-30T13:07:20.690Z,1.50
2023-09-30T13:08:20.657Z,1.50
2023-09-30T13:09:20.642Z,1.50
2023-09-30T13:10:20.631Z,1.30
2023-09-30T13:11:20.651Z,1.90
2023-09-30T13:12:20.665Z,1.70
2023-09-30T13:13:20.613Z,1.70
2023-09-30T13:14:20.593Z,1.80
2023-09-30T13:15:20.577Z,1.90
2023-09-30T13:16:20.648Z,1.80
2023-09-30T13:17:20.564Z,1.50
2023-09-30T13:18:20.565Z,1.50